Time;durP1;ratioP1;P1;durP2;ratioP2;P2;SDS_P1;SDS_P2;PMS_P1;PMS_P2;Temp;Humidity;BMP_temperature;BMP_pressure;BME280_temperature;BME280_humidity;BME280_pressure;Samples;Min_cycle;Max_cycle;Signal;HPM_P1;HPM_P2
2022/07/11 00:00:43;;;;;;;;;;;;;;;;;;;;;
2022/07/11 00:03:15;;;;;;;1.98;0.90;;;16.00;99.90;;;;;;6310474;22;20014;-93
2022/07/11 00:06:10;;;;;;;1.48;0.70;;;16.00;99.90;;;;;;6381699;22;20015;-92
2022/07/11 00:08:38;;;;;;;2.30;1.00;;;16.00;99.90;;;;;;6312690;22;20019;-93
2022/07/11 00:11:04;;;;;;;1.55;0.63;;;16.00;99.90;;;;;;6264732;22;20027;-92
2022/07/11 00:13:34;;;;;;;2.42;1.08;;;16.00;99.90;;;;;;6253666;22;20087;-91
2022/07/11 00:16:27;;;;;;;1.45;0.60;;;16.00;99.90;;;;;;6249394;22;20024;-92
2022/07/11 00:18:57;;;;;;;1.60;0.70;;;16.00;99.90;;;;;;6228538;23;20016;-91
2022/07/11 00:21:24;;;;;;;2.58;0.77;;;16.00;99.90;;;;;;6313226;22;20026;-92
2022/07/11 00:24:01;;;;;;;2.67;0.98;;;16.00;99.90;;;;;;6286189;22;20028;-92
2022/07/11 00:27:04;;;;;;;2.40;0.90;;;15.90;99.90;;;;;;6286757;22;20060;-91
2022/07/11 00:29:46;;;;;;;2.55;0.93;;;16.00;99.90;;;;;;6236765;22;20094;-92
2022/07/11 00:32:13;;;;;;;2.67;0.80;;;15.90;99.90;;;;;;6237352;22;20039;-92
2022/07/11 04:24:05;;;;;;;0.32;0.10;;;15.70;99.90;;;;;;6412754;22;20096;-91
2022/07/11 04:26:31;;;;;;;0.68;0.22;;;15.70;99.90;;;;;;6329514;22;20026;-90
2022/07/11 04:29:10;;;;;;;;;;;;;;;;;;;;;
2022/07/11 04:31:39;;;;;;;;;;;15.70;99.90;;;;;;6348442;22;19956;-91
2022/07/11 04:34:04;;;;;;;;;;;15.60;99.90;;;;;;6320565;22;19954;-91
2022/07/11 04:36:30;;;;;;;;;;;15.70;99.90;;;;;;6321023;22;19914;-92
2022/07/11 04:39:27;;;;;;;;;;;15.70;99.90;;;;;;6319971;22;19993;-95
2022/07/11 04:42:03;;;;;;;;;;;;;;;;;;;;;
2022/07/11 04:44:35;;;;;;;;;;;15.70;99.90;;;;;;6346936;22;19920;-95
2022/07/11 05:29:34;;;;;;;;;;;15.90;99.90;;;;;;6335931;22;19919;-95
2022/07/11 05:32:09;;;;;;;;;;;15.90;99.90;;;;;;6262648;22;19915;-93
2022/07/11 06:05:51;;;;;;;;;;;16.10;99.90;;;;;;6318697;22;19915;-89
2022/07/11 06:11:10;;;;;;;;;;;16.10;99.90;;;;;;6295308;22;19917;-90
2022/07/11 06:13:39;;;;;;;;;;;16.10;99.90;;;;;;6293554;22;19915;-88
2022/07/11 06:19:00;;;;;;;;;;;16.20;99.90;;;;;;6328608;22;19914;-88
2022/07/11 06:21:35;;;;;;;;;;;16.30;99.90;;;;;;6327059;22;19914;-89
2022/07/11 06:24:03;;;;;;;;;;;16.30;99.90;;;;;;6326267;22;20324;-89
2022/07/11 06:26:29;;;;;;;;;;;16.30;99.90;;;;;;6322438;22;19937;-89
2022/07/11 06:28:55;;;;;;;;;;;16.30;99.90;;;;;;6351499;22;19966;-89
2022/07/11 06:31:20;;;;;;;;;;;16.30;99.90;;;;;;6298665;22;19925;-91
2022/07/11 06:33:54;;;;;;;;;;;16.30;99.90;;;;;;6348519;22;19929;-95
2022/07/11 06:36:30;;;;;;;;;;;16.30;99.90;;;;;;6293055;22;19914;-96
2022/07/11 06:38:56;;;;;;;;;;;16.30;99.90;;;;;;6291789;22;19911;-96
2022/07/11 06:41:21;;;;;;;;;;;16.30;99.90;;;;;;6318601;22;19922;-94
2022/07/11 06:43:47;;;;;;;;;;;16.30;99.90;;;;;;6285445;22;19914;-96
2022/07/11 06:46:16;;;;;;;;;;;16.40;99.90;;;;;;6287007;22;19914;-95
2022/07/11 06:49:04;;;;;;;;;;;16.40;99.90;;;;;;6312435;22;19919;-94
2022/07/11 06:51:53;;;;;;;;;;;16.40;99.90;;;;;;6284417;22;19918;-93
2022/07/11 06:54:26;;;;;;;;;;;16.40;99.90;;;;;;6309833;22;19960;-93
2022/07/11 06:57:22;;;;;;;;;;;16.40;99.90;;;;;;6286525;22;20448;-94
2022/07/11 06:59:50;;;;;;;;;;;16.50;99.90;;;;;;6243686;22;19918;-95
2022/07/11 07:10:02;;;;;;;;;;;16.80;99.90;;;;;;6339867;22;20339;-92
2022/07/11 07:12:28;;;;;;;;;;;16.90;99.90;;;;;;6286384;22;19914;-91
2022/07/11 07:14:54;;;;;;;;;;;16.90;99.90;;;;;;6287011;22;19997;-95
2022/07/11 07:17:42;;;;;;;;;;;16.90;99.90;;;;;;6312701;22;19993;-94
2022/07/11 07:20:13;;;;;;;;;;;16.80;99.90;;;;;;6286663;22;19975;-93
2022/07/11 07:22:38;;;;;;;;;;;16.80;99.90;;;;;;6286372;22;19910;-90
2022/07/11 07:49:10;;;;;;;;;;;16.90;99.90;;;;;;6339268;22;19914;-90
2022/07/11 07:52:35;;;;;;;;;;;16.90;99.90;;;;;;6286244;22;19921;-96
2022/07/11 07:54:51;;;;;;;;;;;16.90;99.90;;;;;;6298326;22;19962;-93
2022/07/11 07:57:16;;;;;;;;;;;16.90;99.90;;;;;;6311711;22;19918;-88
2022/07/11 07:59:42;;;;;;;;;;;16.90;99.90;;;;;;6286151;22;20375;-86
2022/07/11 08:02:07;;;;;;;;;;;16.90;99.90;;;;;;6311312;22;20255;-90
2022/07/11 08:04:33;;;;;;;;;;;16.90;99.90;;;;;;6311945;22;19915;-89
2022/07/11 08:06:59;;;;;;;;;;;16.90;99.90;;;;;;6286040;22;19918;-91
2022/07/11 08:09:25;;;;;;;;;;;17.00;99.90;;;;;;6311787;22;19914;-88
2022/07/11 08:11:50;;;;;;;;;;;17.00;99.90;;;;;;6285879;22;19972;-94
2022/07/11 08:14:16;;;;;;;;;;;17.00;99.90;;;;;;6312180;22;19954;-92
2022/07/11 08:19:50;;;;;;;;;;;17.10;99.90;;;;;;6213479;23;19923;-94
2022/07/11 08:22:16;;;;;;;;;;;17.10;99.90;;;;;;6266017;22;19914;-90
2022/07/11 08:24:41;;;;;;;;;;;17.20;99.90;;;;;;6311523;22;19946;-90
2022/07/11 08:27:07;;;;;;;;;;;17.30;99.90;;;;;;6311815;22;19914;-92
2022/07/11 08:29:32;;;;;;;;;;;17.30;99.90;;;;;;6286029;22;19914;-92
2022/07/11 08:31:58;;;;;;;;;;;17.30;99.90;;;;;;6311622;22;19915;-90
2022/07/11 08:34:24;;;;;;;;;;;17.20;99.90;;;;;;6285770;22;19914;-90
2022/07/11 08:36:51;;;;;;;;;;;17.20;99.90;;;;;;6311504;22;19915;-92
2022/07/11 08:39:52;;;;;;;;;;;17.10;99.90;;;;;;6314026;22;19914;-93
2022/07/11 08:46:17;;;;;;;;;;;;;;;;;;;;;
2022/07/11 08:49:23;;;;;;;;;;;;;;;;;;;;;
2022/07/11 08:52:14;;;;;;;;;;;;;;;;;;;;;
2022/07/11 08:55:11;;;;;;;;;;;;;;;;;;;;;
2022/07/11 08:57:49;;;;;;;;;;;17.30;99.90;;;;;;6287296;22;19914;-96
2022/07/11 11:03:04;;;;;;;;;;;17.70;99.90;;;;;;6399931;22;19922;-91
2022/07/11 11:05:49;;;;;;;;;;;17.70;99.90;;;;;;6375598;22;19921;-92
2022/07/11 11:08:36;;;;;;;;;;;17.70;99.90;;;;;;6399362;22;19914;-95
2022/07/11 11:11:05;;;;;;;;;;;17.80;99.90;;;;;;6372894;22;19917;-91
2022/07/11 11:13:35;;;;;;;;;;;17.90;99.90;;;;;;6399028;22;19969;-90
2022/07/11 11:16:02;;;;;;;;;;;18.00;99.90;;;;;;6399802;22;20387;-94
2022/07/11 11:18:34;;;;;;;;;;;18.00;99.90;;;;;;6374091;22;20224;-92
2022/07/11 11:20:59;;;;;;;;;;;18.00;99.90;;;;;;6401269;22;19909;-96
2022/07/11 11:23:26;;;;;;;;;;;18.00;99.90;;;;;;6400819;22;20216;-92
2022/07/11 11:25:52;;;;;;;;;;;18.10;99.90;;;;;;6374759;22;20319;-93
2022/07/11 11:28:22;;;;;;;;;;;18.10;99.90;;;;;;6401348;22;19945;-95
2022/07/11 11:30:54;;;;;;;;;;;18.10;99.90;;;;;;6401423;22;19914;-91
2022/07/11 11:33:20;;;;;;;;;;;18.20;99.90;;;;;;6401489;22;19914;-90
2022/07/11 11:35:45;;;;;;;;;;;18.20;99.90;;;;;;6401558;22;19936;-91
2022/07/11 11:38:11;;;;;;;;;;;18.20;99.90;;;;;;6401805;22;19920;-90
2022/07/11 11:40:46;;;;;;;;;;;18.20;99.90;;;;;;6402044;22;20261;-90
2022/07/11 13:32:58;;;;;;;;;;;18.40;99.90;;;;;;6412063;22;20291;-92
2022/07/11 13:35:33;;;;;;;;;;;18.30;99.90;;;;;;6385047;22;19921;-94
2022/07/11 13:38:04;;;;;;;;;;;18.40;99.90;;;;;;6388601;22;20412;-94
2022/07/11 13:40:33;;;;;;;;;;;18.40;99.90;;;;;;6363542;22;19925;-92
2022/07/11 13:43:29;;;;;;;;;;;;;;;;;;;;;
2022/07/11 13:46:11;;;;;;;;;;;;;;;;;;;;;
2022/07/11 16:09:35;;;;;;;;;;;18.40;99.90;;;;;;6380738;22;19914;-90
2022/07/11 16:12:02;;;;;;;;;;;18.40;99.90;;;;;;6403470;22;19914;-89
2022/07/11 16:14:27;;;;;;;;;;;18.40;99.90;;;;;;6377318;22;19990;-90
2022/07/11 16:16:53;;;;;;;;;;;18.40;99.90;;;;;;6376303;22;19913;-89
2022/07/11 16:19:19;;;;;;;;;;;18.40;99.90;;;;;;6376286;22;19914;-92
2022/07/11 16:21:45;;;;;;;;;;;18.30;99.90;;;;;;6403093;22;19953;-89
2022/07/11 16:24:10;;;;;;;;;;;18.30;99.90;;;;;;6376176;22;19914;-90
2022/07/11 16:26:37;;;;;;;;;;;18.40;99.90;;;;;;6402215;22;19932;-88
2022/07/11 16:29:02;;;;;;;;;;;18.30;99.90;;;;;;6376166;22;19914;-90
2022/07/11 16:31:28;;;;;;;;;;;18.30;99.90;;;;;;6376294;22;19922;-90
2022/07/11 16:33:54;;;;;;;;;;;18.30;99.90;;;;;;6402644;22;19914;-89
2022/07/11 16:36:19;;;;;;;;;;;18.30;99.90;;;;;;6402348;22;19996;-89
2022/07/11 16:43:19;;;;;;;;;;;18.30;99.90;;;;;;6376055;22;19914;-90
2022/07/11 16:44:15;;;;;;;;;;;18.20;99.90;;;;;;6402465;22;19914;-90
2022/07/11 16:46:40;;;;;;;;;;;18.20;99.90;;;;;;6375399;22;20223;-89
2022/07/11 16:49:08;;;;;;;;;;;18.10;99.90;;;;;;6402199;22;19914;-90
2022/07/11 16:51:36;;;;;;;;;;;18.10;99.90;;;;;;6402211;22;19913;-89
2022/07/11 16:54:03;;;;;;;;;;;18.10;99.90;;;;;;6375860;22;19913;-90
2022/07/11 16:56:29;;;;;;;;;;;18.00;99.90;;;;;;6375760;22;19914;-89
2022/07/11 16:58:54;;;;;;;;;;;18.00;99.90;;;;;;6402149;22;20007;-89
2022/07/11 17:01:20;;;;;;;;;;;18.00;99.90;;;;;;6375818;22;19920;-88
2022/07/11 17:03:46;;;;;;;;;;;18.00;99.90;;;;;;6402448;22;19928;-89
2022/07/11 17:06:11;;;;;;;;;;;17.90;99.90;;;;;;6376043;22;19913;-89
2022/07/11 18:04:38;;;;;;;;;;;17.50;99.90;;;;;;6402035;22;19914;-91
2022/07/11 18:07:06;;;;;;;;;;;17.40;99.90;;;;;;6402114;22;20354;-92
2022/07/11 18:10:57;;;;;;;;;;;17.50;99.90;;;;;;6374546;22;19922;-91
2022/07/11 18:12:59;;;;;;;;;;;17.40;99.90;;;;;;6234841;22;20364;-90
2022/07/11 18:15:35;;;;;;;;;;;;;;;;;;;;;
2022/07/11 18:48:27;;;;;;;;;;;17.40;99.90;;;;;;6231606;22;19929;-91
2022/07/11 18:58:11;;;;;;;;;;;17.40;99.90;;;;;;6183167;22;19993;-90
2022/07/11 19:00:42;;;;;;;;;;;17.40;99.90;;;;;;6286324;22;19924;-90
2022/07/11 19:03:13;;;;;;;;;;;17.40;99.90;;;;;;6312279;22;19921;-92
2022/07/11 19:05:38;;;;;;;;;;;17.40;99.90;;;;;;6284624;22;19925;-90
2022/07/11 19:08:07;;;;;;;;;;;17.30;99.90;;;;;;6286046;22;19918;-92
2022/07/11 19:10:35;;;;;;;;;;;17.40;99.90;;;;;;6285647;22;19942;-93
2022/07/11 19:13:09;;;;;;;;;;;17.30;99.90;;;;;;6311475;22;19914;-90
2022/07/11 19:15:34;;;;;;;;;;;17.30;99.90;;;;;;6311370;22;20286;-90
2022/07/11 19:18:02;;;;;;;;;;;17.30;99.90;;;;;;6311182;22;19982;-89
2022/07/11 19:20:28;;;;;;;;;;;17.30;99.90;;;;;;6285699;22;19918;-90
2022/07/11 19:22:56;;;;;;;;;;;17.20;99.90;;;;;;6286219;22;19914;-91
2022/07/11 19:25:22;;;;;;;;;;;17.20;99.90;;;;;;6286169;22;19921;-90
2022/07/11 19:27:47;;;;;;;;;;;17.20;99.90;;;;;;6286195;22;19953;-90
2022/07/11 19:40:34;;;;;;;;;;;17.10;99.90;;;;;;6351984;22;20259;-90
2022/07/11 19:43:02;;;;;;;;;;;17.10;99.90;;;;;;6297149;22;19915;-89
2022/07/11 19:45:28;;;;;;;;;;;17.10;99.90;;;;;;6313526;22;19915;-91
2022/07/11 19:47:54;;;;;;;;;;;17.10;99.90;;;;;;6286034;22;20320;-90
2022/07/11 19:50:23;;;;;;;;;;;17.00;99.90;;;;;;6311840;22;19914;-90
2022/07/11 19:52:48;;;;;;;;;;;17.00;99.90;;;;;;6285799;22;20343;-90
2022/07/11 19:58:04;;;;;;;;;;;17.00;99.90;;;;;;6311770;22;20342;-91
2022/07/11 20:00:30;;;;;;;;;;;17.00;99.90;;;;;;6310197;22;19937;-91
2022/07/11 20:03:05;;;;;;;;;;;17.00;99.90;;;;;;6311636;22;19921;-90
2022/07/11 20:10:41;;;;;;;;;;;16.90;99.90;;;;;;6338797;22;19921;-89
2022/07/11 20:13:07;;;;;;;;;;;16.90;99.90;;;;;;6311598;22;20257;-89
2022/07/11 20:23:19;;;;;;;;;;;16.90;99.90;;;;;;6369164;22;20350;-89
2022/07/11 20:25:49;;;;;;;;;;;16.80;99.90;;;;;;6316124;22;19914;-90
2022/07/11 20:31:10;;;;;;;;;;;16.80;99.90;;;;;;6288766;22;20316;-89
2022/07/11 20:33:41;;;;;;;;;;;16.90;99.90;;;;;;6253801;22;19921;-92
2022/07/11 20:36:15;;;;;;;;;;;16.80;99.90;;;;;;6277534;22;19961;-91
2022/07/11 20:38:41;;;;;;;;;;;16.80;99.90;;;;;;6279225;22;19989;-90
2022/07/11 20:41:07;;;;;;;;;;;16.80;99.90;;;;;;6252978;22;20344;-90
2022/07/11 20:43:33;;;;;;;;;;;16.70;99.90;;;;;;6253609;22;19990;-90
2022/07/11 20:45:58;;;;;;;;;;;16.70;99.90;;;;;;6254586;22;19986;-90
2022/07/11 20:54:21;;;;;;;;;;;16.70;99.90;;;;;;6381048;22;19921;-91
2022/07/11 20:56:47;;;;;;;;;;;16.70;99.90;;;;;;6373600;22;19917;-90
2022/07/11 20:59:15;;;;;;;;;;;16.70;99.90;;;;;;6400113;22;19914;-88
2022/07/11 21:01:41;;;;;;;;;;;16.70;99.90;;;;;;6375754;22;19959;-88
2022/07/11 21:04:07;;;;;;;;;;;16.70;99.90;;;;;;6402324;22;19917;-93
2022/07/11 21:06:32;;;;;;;;;;;16.60;99.90;;;;;;6375421;22;19981;-89
2022/07/11 21:08:58;;;;;;;;;;;16.60;99.90;;;;;;6402339;22;20388;-95
2022/07/11 21:14:44;;;;;;;;;;;16.50;99.90;;;;;;6354730;22;20259;-93
2022/07/11 21:17:10;;;;;;;;;;;16.60;99.90;;;;;;6402198;22;19918;-90
2022/07/11 21:19:39;;;;;;;;;;;16.50;99.90;;;;;;6376254;22;19914;-94
2022/07/11 21:22:34;;;;;;;;;;;;;;;;;;;;;
2022/07/11 21:30:42;;;;;;;;;;;16.40;99.90;;;;;;6344272;22;20345;-92
2022/07/11 21:38:18;;;;;;;;;;;16.40;99.90;;;;;;6385976;22;19914;-91
2022/07/11 21:40:44;;;;;;;;;;;16.40;99.90;;;;;;6380371;22;19992;-96
2022/07/11 21:43:09;;;;;;;;;;;16.40;99.90;;;;;;6378180;22;19914;-94
2022/07/11 21:45:35;;;;;;;;;;;16.40;99.90;;;;;;6403435;22;19914;-92
2022/07/11 21:48:00;;;;;;;;;;;16.40;99.90;;;;;;6376547;22;19921;-95
2022/07/11 21:50:26;;;;;;;;;;;16.40;99.90;;;;;;6376500;22;19920;-94
2022/07/11 21:52:52;;;;;;;;;;;16.40;99.90;;;;;;6402707;22;19963;-95
2022/07/11 21:55:18;;;;;;;;;;;16.40;99.90;;;;;;6375767;22;19984;-95
2022/07/11 21:57:46;;;;;;;;;;;16.50;99.90;;;;;;6375451;22;19920;-93
2022/07/11 22:00:15;;;;;;;;;;;16.50;99.90;;;;;;6375794;22;19910;-96
2022/07/11 22:02:41;;;;;;;;;;;16.50;99.90;;;;;;6376103;22;20058;-96
2022/07/11 22:05:07;;;;;;;;;;;16.50;99.90;;;;;;6402549;22;19910;-94
2022/07/11 22:07:32;;;;;;;;;;;16.50;99.90;;;;;;6375494;22;19920;-89
2022/07/11 22:09:58;;;;;;;;;;;16.50;99.90;;;;;;6375420;22;19995;-95
2022/07/11 22:12:24;;;;;;;;;;;16.40;99.90;;;;;;6375353;22;19961;-91
2022/07/11 22:14:50;;;;;;;;;;;16.40;99.90;;;;;;6401761;22;19965;-90
2022/07/11 22:17:16;;;;;;;;;;;16.40;99.90;;;;;;6402015;22;19949;-88
2022/07/11 22:19:41;;;;;;;;;;;16.40;99.90;;;;;;6375217;22;19914;-89
2022/07/11 22:22:07;;;;;;;;;;;16.40;99.90;;;;;;6401954;22;20311;-94
2022/07/11 22:24:32;;;;;;;;;;;16.40;99.90;;;;;;6375466;22;19984;-95
2022/07/11 22:26:58;;;;;;;;;;;16.40;99.90;;;;;;6402452;22;19942;-89
2022/07/11 22:29:24;;;;;;;;;;;16.40;99.90;;;;;;6402226;22;19994;-91
2022/07/11 22:31:49;;;;;;;;;;;16.40;99.90;;;;;;6376541;22;19929;-92
2022/07/11 22:34:16;;;;;;;;;;;16.40;99.90;;;;;;6378640;22;19935;-96
2022/07/11 22:36:42;;;;;;;;;;;16.40;99.90;;;;;;6377318;22;19945;-94
2022/07/11 22:39:07;;;;;;;;;;;16.40;99.90;;;;;;6392333;22;19913;-91
2022/07/11 22:41:33;;;;;;;;;;;16.30;99.90;;;;;;6375635;22;20278;-96
2022/07/11 22:43:58;;;;;;;;;;;16.30;99.90;;;;;;6402233;22;20314;-91
2022/07/11 22:46:24;;;;;;;;;;;16.30;99.90;;;;;;6375579;22;19949;-96
2022/07/11 22:48:52;;;;;;;;;;;16.30;99.90;;;;;;6402645;22;19914;-94
2022/07/11 22:51:26;;;;;;;;;;;16.30;99.90;;;;;;6377415;22;19948;-96
2022/07/11 22:53:52;;;;;;;;;;;16.30;99.90;;;;;;6375758;22;19920;-94
2022/07/11 23:20:09;;;;;;;;;;;16.10;99.90;;;;;;6339495;22;19914;-92
